createdAt,value
2018-04-26T00:02:28.883Z,16.74
2018-04-26T00:04:56.429Z,16.70
2018-04-26T00:07:24.835Z,16.61
2018-04-26T00:09:52.377Z,16.59
2018-04-26T00:12:19.861Z,16.49
2018-04-26T00:14:47.356Z,16.48
2018-04-26T00:17:14.927Z,16.51
2018-04-26T00:19:42.868Z,16.47
2018-04-26T00:22:10.381Z,16.49
2018-04-26T00:24:37.882Z,16.50
2018-04-26T00:27:05.393Z,16.55
2018-04-26T00:29:32.882Z,16.59
2018-04-26T00:32:00.374Z,16.64
2018-04-26T00:34:27.897Z,16.56
2018-04-26T00:36:55.439Z,16.46
2018-04-26T00:39:22.954Z,16.35
2018-04-26T00:41:50.503Z,16.32
2018-04-26T00:44:18.029Z,16.23
2018-04-26T00:46:45.544Z,16.06
2018-04-26T00:49:13.409Z,15.91
2018-04-26T00:51:52.845Z,15.85
2018-04-26T00:56:54.169Z,15.75
2018-04-26T00:59:21.693Z,15.67
2018-04-26T01:01:49.182Z,15.70
2018-04-26T01:04:16.693Z,15.69
2018-04-26T01:06:44.253Z,15.59
2018-04-26T01:09:11.771Z,15.46
2018-04-26T01:11:39.275Z,15.36
2018-04-26T01:16:56.987Z,15.28
2018-04-26T01:19:24.488Z,15.29
2018-04-26T01:21:51.968Z,15.27
2018-04-26T01:24:19.547Z,15.20
2018-04-26T01:26:47.020Z,15.15
2018-04-26T01:29:14.527Z,15.16
2018-04-26T01:31:41.999Z,15.11
2018-04-26T01:34:09.494Z,15.14
2018-04-26T01:36:48.704Z,15.11
2018-04-26T01:39:16.178Z,15.04
2018-04-26T01:41:43.652Z,14.98
2018-04-26T01:44:11.154Z,14.94
2018-04-26T01:46:38.644Z,14.87
2018-04-26T01:49:06.159Z,14.85
2018-04-26T01:51:33.629Z,14.77
2018-04-26T01:54:01.108Z,14.79
2018-04-26T01:56:28.628Z,14.82
2018-04-26T01:58:56.126Z,14.88
2018-04-26T02:01:23.662Z,14.89
2018-04-26T02:03:51.170Z,14.84
2018-04-26T02:06:18.714Z,14.78
2018-04-26T02:08:46.235Z,14.73
2018-04-26T02:11:15.566Z,14.65
2018-04-26T02:13:43.383Z,14.55
2018-04-26T02:16:10.976Z,14.48
2018-04-26T02:18:38.487Z,14.49
2018-04-26T02:21:05.957Z,14.48
2018-04-26T02:23:33.469Z,14.48
2018-04-26T02:26:01.001Z,14.38
2018-04-26T02:28:28.477Z,14.40
2018-04-26T02:30:56.003Z,14.37
2018-04-26T02:33:24.028Z,14.41
2018-04-26T02:35:51.624Z,14.45
2018-04-26T02:38:19.188Z,14.49
2018-04-26T02:40:46.759Z,14.48
2018-04-26T02:43:15.424Z,14.48
2018-04-26T02:45:43.015Z,14.47
2018-04-26T02:48:10.641Z,14.44
2018-04-26T02:50:38.203Z,14.42
2018-04-26T02:53:05.765Z,14.39
2018-04-26T02:55:33.468Z,14.31
2018-04-26T02:58:01.061Z,14.25
2018-04-26T03:00:28.635Z,14.24
2018-04-26T03:02:56.182Z,14.23
2018-04-26T03:05:23.780Z,14.23
2018-04-26T03:07:51.384Z,14.26
2018-04-26T03:10:18.982Z,14.25
2018-04-26T03:12:46.594Z,14.26
2018-04-26T03:15:14.151Z,14.25
2018-04-26T03:17:41.689Z,14.17
2018-04-26T03:20:09.466Z,14.12
2018-04-26T03:25:09.570Z,14.02
2018-04-26T03:27:37.140Z,14.10
2018-04-26T03:30:04.696Z,14.10
2018-04-26T03:32:32.201Z,14.11
2018-04-26T03:34:59.747Z,14.22
2018-04-26T03:37:27.299Z,14.35
2018-04-26T03:39:54.837Z,14.45
2018-04-26T03:42:22.373Z,14.51
2018-04-26T03:44:49.911Z,14.57
2018-04-26T03:47:17.872Z,14.58
2018-04-26T03:49:45.452Z,14.52
2018-04-26T03:52:13.054Z,14.49
2018-04-26T03:54:40.640Z,14.49
2018-04-26T03:57:08.212Z,14.43
2018-04-26T03:59:47.612Z,14.33
2018-04-26T04:02:27.312Z,14.23
2018-04-26T04:05:06.821Z,14.11
2018-04-26T04:07:34.391Z,14.13
2018-04-26T04:10:01.969Z,14.19
2018-04-26T04:12:29.594Z,14.26
2018-04-26T04:14:57.161Z,14.33
2018-04-26T04:17:24.914Z,14.41
2018-04-26T04:19:52.508Z,14.46
2018-04-26T04:22:20.048Z,14.47
2018-04-26T04:24:47.654Z,14.42
2018-04-26T04:27:15.212Z,14.39
2018-04-26T04:29:42.783Z,14.36
2018-04-26T04:32:10.439Z,14.33
2018-04-26T04:34:38.053Z,14.34
2018-04-26T04:37:05.656Z,14.32
2018-04-26T04:39:33.212Z,14.29
2018-04-26T04:42:00.856Z,14.25
2018-04-26T04:44:28.415Z,14.25
2018-04-26T04:46:56.000Z,14.16
2018-04-26T04:49:23.571Z,14.07
2018-04-26T04:51:51.173Z,14.05
2018-04-26T04:54:18.752Z,13.91
2018-04-26T04:56:46.350Z,13.82
2018-04-26T04:59:13.971Z,13.78
2018-04-26T05:01:41.529Z,13.83
2018-04-26T05:04:09.151Z,13.83
2018-04-26T05:06:36.747Z,13.86
2018-04-26T05:09:04.406Z,13.78
2018-04-26T05:11:32.064Z,13.73
2018-04-26T05:13:59.677Z,13.65
2018-04-26T05:16:27.288Z,13.63
2018-04-26T05:18:54.958Z,13.67
2018-04-26T05:21:22.540Z,13.72
2018-04-26T05:23:50.148Z,13.76
2018-04-26T05:26:17.781Z,13.79
2018-04-26T05:28:45.435Z,13.83
2018-04-26T05:31:14.389Z,13.89
2018-04-26T05:33:42.106Z,13.95
2018-04-26T05:36:09.692Z,14.00
2018-04-26T05:38:37.313Z,13.88
2018-04-26T05:41:04.909Z,13.87
2018-04-26T05:43:32.548Z,13.87
2018-04-26T05:46:00.265Z,13.82
2018-04-26T05:48:27.880Z,13.85
2018-04-26T05:50:55.599Z,13.89
2018-04-26T05:53:23.213Z,13.91
2018-04-26T05:55:50.825Z,13.84
2018-04-26T05:58:18.417Z,13.77
2018-04-26T06:00:46.113Z,13.77
2018-04-26T06:03:14.673Z,13.75
2018-04-26T06:05:42.335Z,13.70
2018-04-26T06:08:09.931Z,13.75
2018-04-26T06:10:37.593Z,13.79
2018-04-26T06:13:05.231Z,13.83
2018-04-26T06:15:32.981Z,13.87
2018-04-26T06:18:00.555Z,13.86
2018-04-26T06:20:28.301Z,13.95
2018-04-26T06:22:55.907Z,14.07
2018-04-26T06:25:23.540Z,14.05
2018-04-26T06:27:51.206Z,14.08
2018-04-26T06:30:18.805Z,14.15
2018-04-26T06:32:46.406Z,14.17
2018-04-26T06:35:14.024Z,14.16
2018-04-26T06:37:41.600Z,14.16
2018-04-26T06:40:09.265Z,14.16
2018-04-26T06:42:36.896Z,14.17
2018-04-26T06:45:04.696Z,14.18
2018-04-26T06:47:32.897Z,14.18
2018-04-26T06:50:00.575Z,14.15
2018-04-26T06:52:28.183Z,14.19
2018-04-26T06:54:55.820Z,14.09
2018-04-26T06:57:23.433Z,14.05
2018-04-26T06:59:51.019Z,14.08
2018-04-26T07:02:18.651Z,14.10
2018-04-26T07:04:46.268Z,14.14
2018-04-26T07:07:13.903Z,14.09
2018-04-26T07:09:41.799Z,14.03
2018-04-26T07:12:09.474Z,13.90
2018-04-26T07:14:37.081Z,13.88
2018-04-26T07:17:04.699Z,13.95
2018-04-26T07:19:32.413Z,13.98
2018-04-26T07:22:00.098Z,14.01
2018-04-26T07:24:27.830Z,14.06
2018-04-26T07:26:55.515Z,14.12
2018-04-26T07:29:23.212Z,14.13
2018-04-26T07:31:50.809Z,14.14
2018-04-26T07:34:18.442Z,14.14
2018-04-26T07:36:46.065Z,13.90
2018-04-26T07:39:13.701Z,13.89
2018-04-26T07:41:41.435Z,13.81
2018-04-26T07:44:09.007Z,13.83
2018-04-26T07:46:36.717Z,13.88
2018-04-26T07:49:04.353Z,13.90
2018-04-26T07:51:31.962Z,13.92
2018-04-26T07:53:59.729Z,13.79
2018-04-26T07:56:27.599Z,13.76
2018-04-26T07:58:55.189Z,13.82
2018-04-26T08:01:22.819Z,13.75
2018-04-26T08:03:50.431Z,13.73
2018-04-26T08:06:18.020Z,13.77
2018-04-26T08:08:46.654Z,13.72
2018-04-26T08:11:14.591Z,13.68
2018-04-26T08:13:42.261Z,13.69
2018-04-26T08:16:09.903Z,13.70
2018-04-26T08:18:38.412Z,13.71
2018-04-26T08:21:06.826Z,13.69
2018-04-26T08:23:35.426Z,13.65
2018-04-26T08:26:03.110Z,13.63
2018-04-26T08:28:30.776Z,13.56
2018-04-26T08:30:59.321Z,13.50
2018-04-26T08:33:27.987Z,13.50
2018-04-26T08:35:55.662Z,13.48
2018-04-26T08:40:57.237Z,13.61
2018-04-26T08:43:29.010Z,13.61
2018-04-26T08:45:56.765Z,13.51
2018-04-26T08:48:24.456Z,13.55
2018-04-26T08:50:53.486Z,13.58
2018-04-26T08:53:30.967Z,13.58
2018-04-26T08:55:59.577Z,13.57
2018-04-26T08:58:27.194Z,13.63
2018-04-26T09:00:54.979Z,13.73
2018-04-26T09:03:22.575Z,13.83
2018-04-26T09:05:50.265Z,13.86
2018-04-26T09:08:17.898Z,13.81
2018-04-26T09:13:19.798Z,13.77
2018-04-26T09:15:47.460Z,13.84
2018-04-26T09:18:15.087Z,13.82
2018-04-26T09:20:42.731Z,13.74
2018-04-26T09:23:10.484Z,13.73
2018-04-26T09:25:38.100Z,13.66
2018-04-26T09:28:05.658Z,13.57
2018-04-26T09:30:33.379Z,13.53
2018-04-26T09:33:01.047Z,13.54
2018-04-26T09:35:28.669Z,13.53
2018-04-26T09:37:56.362Z,13.43
2018-04-26T09:40:24.064Z,13.42
2018-04-26T09:42:52.056Z,13.46
2018-04-26T09:45:20.549Z,13.46
2018-04-26T09:47:48.340Z,13.50
2018-04-26T09:50:16.007Z,13.47
2018-04-26T09:52:43.623Z,13.44
2018-04-26T09:55:11.812Z,13.31
2018-04-26T09:57:39.473Z,13.14
2018-04-26T10:00:07.190Z,13.21
2018-04-26T10:02:42.591Z,13.30
2018-04-26T10:05:13.560Z,13.22
2018-04-26T10:07:41.154Z,13.30
2018-04-26T10:10:09.039Z,13.35
2018-04-26T10:12:36.707Z,13.47
2018-04-26T10:15:04.391Z,13.47
2018-04-26T10:17:35.034Z,13.28
2018-04-26T10:20:02.657Z,13.37
2018-04-26T10:22:30.456Z,13.49
2018-04-26T10:24:58.095Z,13.59
2018-04-26T10:27:25.768Z,13.24
2018-04-26T10:29:53.512Z,13.24
2018-04-26T10:32:21.282Z,13.30
2018-04-26T10:34:49.017Z,13.43
2018-04-26T10:37:16.602Z,13.53
2018-04-26T10:39:44.348Z,13.45
2018-04-26T10:42:11.913Z,13.50
2018-04-26T10:44:39.508Z,13.53
2018-04-26T10:47:07.132Z,13.46
2018-04-26T10:49:34.740Z,13.33
2018-04-26T10:52:02.343Z,13.12
2018-04-26T10:54:29.943Z,13.16
2018-04-26T10:56:57.556Z,13.30
2018-04-26T10:59:25.188Z,13.30
2018-04-26T11:01:52.838Z,13.28
2018-04-26T11:04:20.469Z,13.49
2018-04-26T11:06:48.136Z,13.49
2018-04-26T11:09:15.721Z,13.57
2018-04-26T11:11:43.316Z,13.54
2018-04-26T11:14:10.963Z,13.63
2018-04-26T11:16:38.549Z,13.69
2018-04-26T11:19:06.407Z,13.64
2018-04-26T11:21:33.988Z,13.54
2018-04-26T11:24:01.623Z,13.44
2018-04-26T11:26:29.189Z,13.42
2018-04-26T11:28:56.805Z,13.42
2018-04-26T11:31:24.701Z,13.55
2018-04-26T11:33:52.299Z,13.61
2018-04-26T11:36:19.927Z,13.64
2018-04-26T11:38:47.515Z,13.48
2018-04-26T11:41:15.045Z,13.43
2018-04-26T11:43:42.574Z,13.27
2018-04-26T11:46:10.592Z,13.23
2018-04-26T11:48:38.171Z,12.99
2018-04-26T11:51:05.741Z,13.00
2018-04-26T11:53:33.303Z,13.01
2018-04-26T11:56:00.859Z,13.04
2018-04-26T11:58:28.443Z,12.98
2018-04-26T12:00:56.032Z,13.14
2018-04-26T12:03:23.641Z,13.09
2018-04-26T12:05:51.159Z,13.13
2018-04-26T12:08:18.737Z,13.13
2018-04-26T12:10:46.312Z,13.15
2018-04-26T12:13:15.088Z,13.16
2018-04-26T12:15:42.727Z,13.18
2018-04-26T12:18:10.239Z,13.13
2018-04-26T12:20:37.772Z,13.06
2018-04-26T12:23:05.348Z,13.03
2018-04-26T12:25:32.845Z,13.04
2018-04-26T12:28:00.366Z,12.92
2018-04-26T12:30:27.921Z,12.86
2018-04-26T12:32:55.436Z,12.80
2018-04-26T12:35:23.416Z,12.81
2018-04-26T12:37:50.982Z,12.74
2018-04-26T12:40:18.534Z,12.75
2018-04-26T12:42:46.040Z,12.77
2018-04-26T12:45:13.884Z,12.74
2018-04-26T12:47:41.400Z,12.72
2018-04-26T12:50:08.902Z,12.55
2018-04-26T12:52:36.388Z,12.56
2018-04-26T12:55:03.899Z,12.54
2018-04-26T12:57:32.154Z,12.54
2018-04-26T12:59:59.787Z,12.52
2018-04-26T13:02:27.367Z,12.46
2018-04-26T13:04:55.040Z,12.41
2018-04-26T13:07:22.695Z,12.35
2018-04-26T13:09:50.316Z,12.34
2018-04-26T13:12:17.871Z,12.09
2018-04-26T13:14:45.424Z,12.04
2018-04-26T13:17:13.113Z,12.02
2018-04-26T13:19:41.617Z,12.10
2018-04-26T13:22:09.251Z,12.14
2018-04-26T13:24:36.889Z,12.15
2018-04-26T13:27:04.554Z,12.26
2018-04-26T13:29:32.181Z,12.26
2018-04-26T13:31:59.825Z,12.36
2018-04-26T13:34:27.389Z,12.40
2018-04-26T13:36:54.978Z,12.61
2018-04-26T13:39:23.698Z,12.74
2018-04-26T13:41:51.400Z,12.76
2018-04-26T13:44:19.003Z,12.81
2018-04-26T13:46:46.587Z,12.89
2018-04-26T13:49:15.461Z,13.02
2018-04-26T13:51:43.095Z,12.89
2018-04-26T13:54:10.724Z,12.75
2018-04-26T13:56:38.305Z,12.49
2018-04-26T13:59:06.023Z,12.40
2018-04-26T14:01:34.258Z,12.29
2018-04-26T14:04:03.749Z,12.22
2018-04-26T14:06:31.513Z,12.25
2018-04-26T14:08:59.069Z,12.21
2018-04-26T14:11:26.970Z,12.02
2018-04-26T14:13:54.574Z,11.85
2018-04-26T14:16:22.464Z,11.88
2018-04-26T14:18:50.115Z,11.85
2018-04-26T14:21:17.749Z,11.86
2018-04-26T14:23:45.329Z,11.83
2018-04-26T14:26:12.825Z,11.89
2018-04-26T14:28:40.341Z,11.92
2018-04-26T14:31:07.897Z,11.97
2018-04-26T14:33:35.412Z,11.92
2018-04-26T14:36:03.037Z,11.90
2018-04-26T14:38:30.664Z,11.89
2018-04-26T14:40:58.245Z,11.91
2018-04-26T14:43:25.869Z,11.93
2018-04-26T14:45:53.396Z,11.87
2018-04-26T14:48:21.082Z,11.84
2018-04-26T14:50:48.625Z,11.84
2018-04-26T14:53:16.409Z,11.85
2018-04-26T14:55:44.246Z,11.85
2018-04-26T14:58:11.831Z,11.86
2018-04-26T15:00:39.444Z,11.80
2018-04-26T15:03:07.041Z,11.76
2018-04-26T15:05:34.626Z,11.70
2018-04-26T15:08:02.246Z,11.71
2018-04-26T15:10:29.758Z,11.79
2018-04-26T15:12:57.297Z,11.64
2018-04-26T15:15:24.847Z,11.62
2018-04-26T15:17:52.353Z,11.63
2018-04-26T15:20:19.904Z,11.69
2018-04-26T15:22:47.495Z,11.71
2018-04-26T15:25:15.169Z,11.71
2018-04-26T15:27:42.774Z,11.61
2018-04-26T15:30:10.361Z,11.67
2018-04-26T15:32:37.950Z,11.56
2018-04-26T15:35:05.592Z,11.52
2018-04-26T15:40:07.059Z,11.58
2018-04-26T15:45:08.534Z,11.73
2018-04-26T15:47:36.128Z,11.59
2018-04-26T15:50:03.726Z,11.51
2018-04-26T15:52:48.671Z,11.61
2018-04-26T15:55:28.057Z,11.59
2018-04-26T16:01:34.338Z,11.50
2018-04-26T16:04:13.499Z,11.51
2018-04-26T16:10:01.976Z,11.55
2018-04-26T16:12:47.150Z,11.53
2018-04-26T16:15:26.368Z,11.55
2018-04-26T16:21:34.215Z,11.67
2018-04-26T16:27:33.782Z,11.68
2018-04-26T16:30:13.212Z,11.59
2018-04-26T16:32:52.641Z,11.64
2018-04-26T16:35:31.933Z,11.60
2018-04-26T16:38:15.316Z,11.61
2018-04-26T16:40:42.882Z,11.64
2018-04-26T16:43:11.422Z,11.67
2018-04-26T16:45:39.114Z,11.73
2018-04-26T16:48:06.748Z,11.75
2018-04-26T16:50:34.382Z,11.82
2018-04-26T16:53:01.986Z,11.82
2018-04-26T16:55:32.332Z,11.85
2018-04-26T16:57:59.917Z,11.84
2018-04-26T17:00:27.500Z,11.80
2018-04-26T17:02:55.980Z,11.79
2018-04-26T17:05:23.700Z,11.78
2018-04-26T17:07:51.376Z,11.84
2018-04-26T17:10:19.094Z,11.75
2018-04-26T17:12:47.296Z,11.71
2018-04-26T17:15:15.363Z,11.69
2018-04-26T17:17:43.063Z,11.66
2018-04-26T17:20:10.749Z,11.60
2018-04-26T17:22:38.544Z,11.61
2018-04-26T17:25:06.277Z,11.58
2018-04-26T17:27:35.383Z,11.50
2018-04-26T17:30:02.996Z,11.46
2018-04-26T17:32:30.639Z,11.41
2018-04-26T17:34:58.241Z,11.48
2018-04-26T17:37:25.782Z,11.38
2018-04-26T17:39:53.313Z,11.49
2018-04-26T17:42:21.076Z,11.41
2018-04-26T17:44:48.608Z,11.32
2018-04-26T17:47:16.193Z,11.26
2018-04-26T17:49:43.772Z,11.30
2018-04-26T17:52:11.352Z,11.32
2018-04-26T17:54:38.995Z,11.21
2018-04-26T17:59:40.678Z,11.19
2018-04-26T18:02:08.681Z,11.12
2018-04-26T18:04:36.356Z,11.05
2018-04-26T18:07:03.956Z,10.97
2018-04-26T18:09:31.599Z,10.93
2018-04-26T18:11:59.225Z,10.91
2018-04-26T18:14:26.823Z,10.86
2018-04-26T18:16:54.406Z,10.81
2018-04-26T18:19:22.000Z,10.81
2018-04-26T18:21:49.629Z,10.74
2018-04-26T18:24:17.229Z,10.76
2018-04-26T18:26:45.021Z,10.71
2018-04-26T18:29:14.244Z,10.63
2018-04-26T18:31:43.918Z,10.58
2018-04-26T18:34:16.962Z,10.56
2018-04-26T18:36:41.788Z,10.48
2018-04-26T18:39:09.387Z,10.43
2018-04-26T18:41:37.058Z,10.44
2018-04-26T18:44:04.601Z,10.39
2018-04-26T18:46:32.178Z,10.32
2018-04-26T18:48:59.783Z,10.26
2018-04-26T18:51:27.298Z,10.25
2018-04-26T18:53:54.903Z,10.20
2018-04-26T18:56:22.730Z,10.18
2018-04-26T18:58:50.304Z,10.21
2018-04-26T19:01:17.920Z,10.12
2018-04-26T19:03:45.495Z,9.99
2018-04-26T19:06:13.059Z,10.06
2018-04-26T19:08:48.367Z,9.97
2018-04-26T19:11:16.020Z,9.92
2018-04-26T19:13:43.715Z,9.88
2018-04-26T19:16:12.131Z,9.78
2018-04-26T19:18:39.731Z,9.80
2018-04-26T19:21:07.346Z,9.75
2018-04-26T19:23:34.906Z,9.69
2018-04-26T19:26:02.828Z,9.60
2018-04-26T19:28:31.479Z,9.58
2018-04-26T19:30:59.214Z,9.66
2018-04-26T19:33:28.461Z,9.63
2018-04-26T19:35:57.139Z,9.55
2018-04-26T19:38:24.808Z,9.54
2018-04-26T19:40:52.539Z,9.50
2018-04-26T19:43:21.741Z,9.47
2018-04-26T19:45:51.406Z,9.40
2018-04-26T19:48:19.048Z,9.39
2018-04-26T19:50:47.280Z,9.37
2018-04-26T19:53:14.923Z,9.28
2018-04-26T19:55:42.810Z,9.25
2018-04-26T19:58:10.412Z,9.23
2018-04-26T20:00:38.084Z,9.25
2018-04-26T20:03:10.489Z,9.22
2018-04-26T20:05:38.113Z,9.24
2018-04-26T20:08:05.706Z,9.21
2018-04-26T20:10:33.337Z,9.25
2018-04-26T20:13:00.956Z,9.30
2018-04-26T20:15:29.006Z,9.31
2018-04-26T20:17:56.509Z,9.33
2018-04-26T20:20:24.046Z,9.35
2018-04-26T20:22:51.571Z,9.39
2018-04-26T20:25:19.990Z,9.41
2018-04-26T20:27:47.607Z,9.37
2018-04-26T20:30:15.952Z,9.39
2018-04-26T20:32:43.550Z,9.36
2018-04-26T20:35:11.268Z,9.33
2018-04-26T20:37:39.322Z,9.31
2018-04-26T20:40:06.999Z,9.25
2018-04-26T20:42:34.630Z,9.27
2018-04-26T20:45:02.199Z,9.23
2018-04-26T20:47:30.388Z,9.20
2018-04-26T20:49:57.983Z,9.17
2018-04-26T20:52:25.744Z,9.16
2018-04-26T20:54:53.435Z,9.14
2018-04-26T20:57:21.269Z,9.08
2018-04-26T20:59:48.912Z,9.09
2018-04-26T21:02:16.540Z,9.10
2018-04-26T21:04:44.207Z,9.11
2018-04-26T21:07:12.635Z,9.13
2018-04-26T21:09:40.261Z,9.13
2018-04-26T21:12:07.837Z,9.09
2018-04-26T21:14:35.401Z,9.06
2018-04-26T21:17:02.968Z,9.08
2018-04-26T21:22:04.345Z,9.09
2018-04-26T21:24:31.934Z,9.13
2018-04-26T21:26:59.535Z,9.15
2018-04-26T21:29:27.391Z,9.17
2018-04-26T21:31:55.001Z,9.15
2018-04-26T21:34:22.646Z,9.14
2018-04-26T21:36:50.235Z,9.15
2018-04-26T21:39:18.293Z,9.17
2018-04-26T21:41:45.844Z,9.16
2018-04-26T21:44:13.454Z,9.13
2018-04-26T21:46:41.060Z,9.08
2018-04-26T21:49:09.110Z,9.03
2018-04-26T21:51:42.273Z,8.98
2018-04-26T21:54:15.354Z,8.90
2018-04-26T21:56:48.463Z,8.82
2018-04-26T21:59:21.576Z,8.81
2018-04-26T22:01:55.119Z,8.80
2018-04-26T22:04:33.356Z,8.76
2018-04-26T22:07:00.923Z,8.70
2018-04-26T22:09:28.450Z,8.77
2018-04-26T22:11:55.956Z,8.81
2018-04-26T22:14:23.484Z,8.86
2018-04-26T22:16:51.016Z,8.86
2018-04-26T22:19:18.559Z,8.85
2018-04-26T22:21:46.240Z,8.82
2018-04-26T22:24:13.854Z,8.83
2018-04-26T22:26:41.562Z,8.79
2018-04-26T22:29:09.181Z,8.77
2018-04-26T22:31:36.704Z,8.78
2018-04-26T22:34:04.212Z,8.72
2018-04-26T22:36:31.776Z,8.64
2018-04-26T22:38:59.294Z,8.65
2018-04-26T22:41:26.823Z,8.65
2018-04-26T22:43:54.425Z,8.66
2018-04-26T22:46:22.114Z,8.64
2018-04-26T22:48:49.714Z,8.51
2018-04-26T22:51:17.733Z,8.46
2018-04-26T22:53:45.720Z,8.48
2018-04-26T22:56:13.305Z,8.48
2018-04-26T22:58:40.846Z,8.48
2018-04-26T23:01:08.366Z,8.48
2018-04-26T23:03:35.936Z,8.48
2018-04-26T23:06:03.445Z,8.48
2018-04-26T23:08:30.967Z,8.50
2018-04-26T23:10:58.536Z,8.45
2018-04-26T23:13:27.412Z,8.22
2018-04-26T23:15:54.994Z,8.16
2018-04-26T23:18:22.596Z,8.14
2018-04-26T23:20:50.155Z,8.15
2018-04-26T23:23:17.832Z,8.13
2018-04-26T23:25:45.397Z,8.13
2018-04-26T23:28:13.005Z,8.16
2018-04-26T23:30:40.648Z,8.06
2018-04-26T23:33:08.328Z,8.00
2018-04-26T23:35:35.926Z,7.98
2018-04-26T23:38:03.513Z,7.83
2018-04-26T23:40:31.094Z,7.79
2018-04-26T23:42:58.681Z,7.74
2018-04-26T23:45:26.373Z,7.73
2018-04-26T23:47:53.903Z,7.72
2018-04-26T23:50:21.509Z,7.74
2018-04-26T23:52:49.199Z,7.65
2018-04-26T23:55:16.793Z,7.59
2018-04-26T23:57:44.357Z,7.61
